Time;durP1;ratioP1;P1;durP2;ratioP2;P2;SDS_P1;SDS_P2;PMS_P1;PMS_P2;Temp;Humidity;BMP_temperature;BMP_pressure;BME280_temperature;BME280_humidity;BME280_pressure;Samples;Min_cycle;Max_cycle;Signal;HPM_P1;HPM_P2
2023/03/17 00:00:51;;;;;;;;;;;;;;;19.50;59.31;99238.31;2083373;28;19928;-57
2023/03/17 00:01:53;;;;;;;;;;;;;;;19.49;59.17;99235.81;2084012;28;20081;-58
2023/03/17 00:02:58;;;;;;;;;;;;;;;19.50;59.15;99243.72;2083460;28;19925;-59
2023/03/17 00:03:58;;;;;;;;;;;;;;;19.47;59.36;99233.31;2084167;28;19972;-58
2023/03/17 00:05:00;;;;;;;;;;;;;;;19.47;58.99;99241.38;2082694;28;20019;-59
2023/03/17 00:06:03;;;;;;;;;;;;;;;19.47;59.07;99237.88;2084173;28;19967;-59
2023/03/17 00:07:04;;;;;;;;;;;;;;;19.45;59.13;99234.56;2083201;28;19929;-59
2023/03/17 00:08:10;;;;;;;;;;;;;;;19.47;59.00;99238.69;2081770;28;20020;-59
2023/03/17 00:09:13;;;;;;;;;;;;;;;19.48;59.27;99237.69;2076654;28;19929;-59
2023/03/17 00:10:16;;;;;;;;;;;;;;;19.46;59.40;99236.22;2081466;28;19925;-58
2023/03/17 00:11:16;;;;;;;;;;;;;;;19.46;58.98;99236.22;2083274;28;19932;-58
2023/03/17 00:12:19;;;;;;;;;;;;;;;19.47;59.32;99235.16;2082644;28;20276;-59
2023/03/17 00:13:20;;;;;;;;;;;;;;;19.47;59.35;99225.25;2082005;28;19928;-64
2023/03/17 00:14:21;;;;;;;;;;;;;;;19.48;59.42;99228.78;2083611;28;20567;-57
2023/03/17 00:15:23;;;;;;;;;;;;;;;19.50;59.25;99226.72;2083420;28;19929;-59
2023/03/17 00:16:26;;;;;;;;;;;;;;;19.52;59.22;99230.03;2081749;28;19928;-58
2023/03/17 00:17:26;;;;;;;;;;;;;;;19.54;59.38;99236.91;2081717;28;19936;-58
2023/03/17 00:18:29;;;;;;;;;;;;;;;19.56;59.20;99232.16;2082775;28;19925;-58
2023/03/17 00:19:31;;;;;;;;;;;;;;;19.60;59.06;99233.41;2082744;28;19940;-58
2023/03/17 00:20:32;;;;;;;;;;;;;;;19.64;59.23;99236.56;2081894;28;21131;-59
2023/03/17 00:21:34;;;;;;;;;;;;;;;19.67;59.31;99233.53;2082378;28;19925;-58
2023/03/17 00:22:35;;;;;;;;;;;;;;;19.68;59.15;99231.66;2082977;28;19933;-58
2023/03/17 00:23:36;;;;;;;;;;;;;;;19.69;58.70;99230.63;2082608;28;20323;-58
2023/03/17 00:24:37;;;;;;;;;;;;;;;19.72;58.76;99233.72;2080788;28;19928;-58
2023/03/17 00:25:41;;;;;;;;;;;;;;;19.74;59.00;99225.47;2076336;28;19990;-59
2023/03/17 00:26:43;;;;;;;;;;;;;;;19.75;59.13;99229.81;2081582;28;19937;-58
2023/03/17 00:27:45;;;;;;;;;;;;;;;19.79;58.68;99231.94;2083019;28;19928;-59
2023/03/17 00:28:47;;;;;;;;;;;;;;;19.80;58.81;99222.81;2085260;28;20421;-58
2023/03/17 00:29:47;;;;;;;;;;;;;;;19.84;58.63;99221.41;2083235;28;20334;-58
2023/03/17 00:30:53;;;;;;;;;;;;;;;19.84;58.58;99218.72;2082095;28;19925;-59
2023/03/17 00:31:56;;;;;;;;;;;;;;;19.85;58.53;99224.94;2082519;28;19924;-59
2023/03/17 00:32:58;;;;;;;;;;;;;;;19.86;58.95;99221.19;2081257;28;19971;-58
2023/03/17 00:33:59;;;;;;;;;;;;;;;19.84;58.56;99224.09;2082104;28;19932;-58
2023/03/17 00:35:00;;;;;;;;;;;;;;;19.84;58.71;99217.91;2082640;28;19929;-59
2023/03/17 00:36:01;;;;;;;;;;;;;;;19.86;58.64;99222.06;2083692;28;19929;-58
2023/03/17 00:37:03;;;;;;;;;;;;;;;19.86;58.58;99213.97;2082440;28;20011;-57
2023/03/17 00:38:04;;;;;;;;;;;;;;;19.89;58.82;99214.59;2082538;28;19933;-59
2023/03/17 00:39:06;;;;;;;;;;;;;;;19.89;58.66;99215.41;2082724;28;21743;-58
2023/03/17 00:40:08;;;;;;;;;;;;;;;19.91;58.85;99220.63;2082750;28;19933;-58
2023/03/17 00:41:09;;;;;;;;;;;;;;;19.90;58.68;99214.41;2079159;28;19932;-58
2023/03/17 00:42:10;;;;;;;;;;;;;;;19.90;58.57;99216.28;2075712;28;19924;-59
2023/03/17 00:43:13;;;;;;;;;;;;;;;19.90;58.76;99219.78;2082644;28;19936;-58
2023/03/17 00:44:14;;;;;;;;;;;;;;;19.92;58.75;99214.19;2082770;28;20441;-58
2023/03/17 00:45:15;;;;;;;;;;;;;;;19.93;58.91;99215.88;2082164;28;19975;-58
2023/03/17 00:46:18;;;;;;;;;;;;;;;19.92;58.70;99203.44;2082485;28;19932;-58
2023/03/17 00:47:19;;;;;;;;;;;;;;;19.94;58.67;99212.16;2084003;28;20525;-58
2023/03/17 00:48:20;;;;;;;;;;;;;;;19.93;58.70;99210.50;2083344;28;20340;-61
2023/03/17 00:49:23;;;;;;;;;;;;;;;19.94;58.51;99206.75;2082937;28;19966;-58
2023/03/17 00:50:26;;;;;;;;;;;;;;;19.92;58.72;99204.28;2083363;28;19936;-58
2023/03/17 00:51:28;;;;;;;;;;;;;;;19.92;58.62;99208.81;2082575;28;19976;-59
2023/03/17 00:52:28;;;;;;;;;;;;;;;19.92;58.63;99203.44;2082441;28;19999;-58
2023/03/17 00:53:29;;;;;;;;;;;;;;;19.91;58.70;99201.78;2081828;28;20477;-57
2023/03/17 00:54:30;;;;;;;;;;;;;;;19.90;58.70;99198.25;2075426;28;19979;-58
2023/03/17 00:55:31;;;;;;;;;;;;;;;19.92;58.78;99203.44;2082831;28;20358;-59
2023/03/17 00:56:32;;;;;;;;;;;;;;;19.93;58.96;99205.09;2079836;28;19924;-59
2023/03/17 00:57:34;;;;;;;;;;;;;;;19.92;58.54;99208.81;2069939;28;19933;-57
2023/03/17 00:58:37;;;;;;;;;;;;;;;19.90;59.07;99200.94;2081121;28;19939;-58
2023/03/17 00:59:39;;;;;;;;;;;;;;;19.92;58.91;99200.72;2076801;28;20810;-59
2023/03/17 01:00:41;;;;;;;;;;;;;;;19.91;58.79;99194.53;2082110;28;19933;-58
2023/03/17 01:01:41;;;;;;;;;;;;;;;19.91;58.84;99194.53;2077261;28;20723;-58
2023/03/17 01:02:43;;;;;;;;;;;;;;;19.91;58.78;99197.22;2075034;28;19929;-58
2023/03/17 01:03:44;;;;;;;;;;;;;;;19.91;58.68;99196.38;2077979;28;20614;-59
2023/03/17 01:04:46;;;;;;;;;;;;;;;19.91;58.84;99196.38;2080153;28;19987;-59
2023/03/17 01:05:46;;;;;;;;;;;;;;;19.89;59.00;99193.88;2076673;28;19936;-58
2023/03/17 01:06:49;;;;;;;;;;;;;;;19.92;58.76;99200.72;2078836;28;20319;-59
2023/03/17 01:07:51;;;;;;;;;;;;;;;19.91;58.90;99191.84;2074746;28;19964;-58
2023/03/17 01:08:53;;;;;;;;;;;;;;;19.90;58.79;99195.56;2082069;28;19972;-58
2023/03/17 01:09:53;;;;;;;;;;;;;;;19.89;58.89;99193.88;2080942;28;20342;-59
2023/03/17 01:10:55;;;;;;;;;;;;;;;19.91;58.62;99199.09;2081817;28;20003;-58
2023/03/17 01:11:55;;;;;;;;;;;;;;;19.89;58.60;99193.88;2081196;28;20426;-59
2023/03/17 01:12:58;;;;;;;;;;;;;;;19.89;58.82;99193.88;2081747;28;19925;-58
2023/03/17 01:14:00;;;;;;;;;;;;;;;19.90;58.68;99192.03;2072947;28;20945;-59
2023/03/17 01:15:01;;;;;;;;;;;;;;;19.90;58.18;99194.75;2080228;28;19968;-58
2023/03/17 01:16:02;;;;;;;;;;;;;;;19.89;58.60;99188.50;2081653;28;19928;-58
2023/03/17 01:17:03;;;;;;;;;;;;;;;19.88;58.59;99184.16;2081646;28;19980;-58
2023/03/17 01:18:04;;;;;;;;;;;;;;;19.88;58.50;99186.03;2082204;28;19929;-58
2023/03/17 01:19:06;;;;;;;;;;;;;;;19.89;58.66;99184.97;2081671;28;19929;-58
2023/03/17 01:20:07;;;;;;;;;;;;;;;19.89;58.74;99187.66;2080597;28;20566;-59
2023/03/17 01:21:09;;;;;;;;;;;;;;;19.88;58.61;99186.03;2081066;28;19936;-58
2023/03/17 01:22:09;;;;;;;;;;;;;;;19.88;58.82;99183.31;2081768;28;19929;-58
2023/03/17 01:23:11;;;;;;;;;;;;;;;19.87;58.75;99179.81;2074260;28;19948;-58
2023/03/17 01:24:12;;;;;;;;;;;;;;;19.88;58.65;99184.16;2080723;28;19978;-59
2023/03/17 01:25:16;;;;;;;;;;;;;;;19.88;58.66;99177.94;2081748;28;20351;-58
2023/03/17 01:26:16;;;;;;;;;;;;;;;19.88;58.70;99176.06;2080759;28;19937;-59
2023/03/17 01:27:18;;;;;;;;;;;;;;;19.88;58.59;99177.94;2081896;28;20448;-58
2023/03/17 01:28:19;;;;;;;;;;;;;;;19.88;58.67;99177.94;2081178;28;20016;-58
2023/03/17 01:29:23;;;;;;;;;;;;;;;19.86;58.58;99179.00;2080617;28;24220;-58
2023/03/17 01:30:26;;;;;;;;;;;;;;;19.87;58.66;99177.13;2081938;28;20002;-59
2023/03/17 01:31:27;;;;;;;;;;;;;;;19.86;58.85;99172.75;2080791;28;19929;-59
2023/03/17 01:32:28;;;;;;;;;;;;;;;19.85;58.62;99177.31;2080630;28;19978;-59
2023/03/17 01:33:29;;;;;;;;;;;;;;;19.85;58.65;99173.78;2067571;28;19983;-59
2023/03/17 01:34:29;;;;;;;;;;;;;;;19.85;58.49;99171.91;2070902;28;22048;-59
2023/03/17 01:35:31;;;;;;;;;;;;;;;19.85;58.48;99173.78;2080848;28;19929;-58
2023/03/17 01:36:31;;;;;;;;;;;;;;;19.85;58.43;99171.09;2081072;28;19929;-59
2023/03/17 01:37:33;;;;;;;;;;;;;;;19.84;58.49;99174.81;2073601;28;20907;-59
2023/03/17 01:38:34;;;;;;;;;;;;;;;19.84;58.64;99172.13;2063515;28;19932;-58
2023/03/17 01:39:36;;;;;;;;;;;;;;;19.84;58.49;99178.34;2071018;28;19992;-59
2023/03/17 01:40:37;;;;;;;;;;;;;;;19.81;58.85;99170.66;2080212;28;20371;-58
2023/03/17 01:41:39;;;;;;;;;;;;;;;19.82;58.51;99171.50;2081022;28;19933;-58
2023/03/17 01:42:41;;;;;;;;;;;;;;;19.81;58.57;99167.97;2081858;28;19940;-59
2023/03/17 01:43:42;;;;;;;;;;;;;;;19.81;58.74;99169.84;2083420;28;19932;-59
2023/03/17 01:44:59;;;;;;;;;;;;;;;19.80;58.42;99170.84;2081656;28;19929;-58
2023/03/17 01:46:26;;;;;;;;;;;;;;;19.80;58.61;99174.38;2078517;28;20009;-58
2023/03/17 01:47:29;;;;;;;;;;;;;;;19.81;58.63;99173.38;2079833;28;19954;-58
2023/03/17 01:48:32;;;;;;;;;;;;;;;19.80;58.48;99174.38;2081557;28;19932;-57
2023/03/17 01:49:36;;;;;;;;;;;;;;;19.79;58.77;99172.72;2082053;28;19932;-57
2023/03/17 01:50:37;;;;;;;;;;;;;;;19.79;58.43;99171.91;2081187;28;19952;-57
2023/03/17 01:51:43;;;;;;;;;;;;;;;19.79;58.74;99179.97;2081315;28;19975;-57
2023/03/17 01:52:46;;;;;;;;;;;;;;;19.79;58.66;99177.28;2081766;28;20278;-59
2023/03/17 01:53:49;;;;;;;;;;;;;;;19.77;58.68;99173.94;2080470;28;19925;-59
2023/03/17 01:54:55;;;;;;;;;;;;;;;19.78;58.56;99175.59;2081413;28;20480;-59
2023/03/17 01:55:56;;;;;;;;;;;;;;;19.76;58.46;99172.28;2073099;28;19932;-59
2023/03/17 01:57:01;;;;;;;;;;;;;;;19.74;58.62;99168.97;2081736;28;20043;-58
2023/03/17 01:58:01;;;;;;;;;;;;;;;19.74;58.59;99177.88;2081333;28;19925;-58
2023/03/17 01:59:05;;;;;;;;;;;;;;;19.73;58.51;99183.47;2081608;28;19971;-60
2023/03/17 02:00:08;;;;;;;;;;;;;;;19.72;58.74;99169.16;2080943;28;20014;-58
2023/03/17 02:01:10;;;;;;;;;;;;;;;19.73;58.37;99170.00;2082647;28;19925;-58
2023/03/17 02:02:13;;;;;;;;;;;;;;;19.72;58.37;99169.16;2081345;28;19929;-58
2023/03/17 02:03:16;;;;;;;;;;;;;;;19.72;58.50;99171.84;2081050;28;20378;-59
2023/03/17 02:04:18;;;;;;;;;;;;;;;19.72;58.58;99161.06;2081320;28;19936;-58
2023/03/17 02:05:21;;;;;;;;;;;;;;;19.73;58.22;99168.13;2079918;28;19929;-59
2023/03/17 02:06:21;;;;;;;;;;;;;;;19.73;58.48;99161.94;2081017;28;19955;-59
2023/03/17 02:07:23;;;;;;;;;;;;;;;19.72;58.33;99166.44;2082497;28;19991;-58
2023/03/17 02:08:25;;;;;;;;;;;;;;;19.72;58.44;99161.06;2081038;28;19975;-59
2023/03/17 02:09:27;;;;;;;;;;;;;;;19.70;58.60;99163.16;2081752;28;19987;-59
2023/03/17 02:10:28;;;;;;;;;;;;;;;19.71;58.26;99155.91;2078635;28;20338;-61
2023/03/17 02:11:30;;;;;;;;;;;;;;;19.70;58.53;99156.94;2081917;28;19925;-59
2023/03/17 02:12:33;;;;;;;;;;;;;;;19.69;58.45;99156.09;2072946;28;19928;-59
2023/03/17 02:13:36;;;;;;;;;;;;;;;19.70;58.18;99157.78;2080957;28;19929;-58
2023/03/17 02:14:36;;;;;;;;;;;;;;;19.70;58.46;99165.84;2080702;28;19987;-59
2023/03/17 02:15:39;;;;;;;;;;;;;;;19.70;58.18;99157.78;2081676;28;19992;-59
2023/03/17 02:16:39;;;;;;;;;;;;;;;19.70;58.40;99159.63;2080306;28;20378;-58
2023/03/17 02:17:41;;;;;;;;;;;;;;;19.70;58.51;99157.78;2072287;28;19940;-58
2023/03/17 02:18:43;;;;;;;;;;;;;;;19.70;58.44;99152.38;2077647;28;19933;-59
2023/03/17 02:19:45;;;;;;;;;;;;;;;19.71;58.36;99153.22;2081733;28;20476;-58
2023/03/17 02:21:13;;;;;;;;;;;;;;;19.72;58.49;99154.88;2081994;28;19925;-58
2023/03/17 02:22:16;;;;;;;;;;;;;;;19.73;58.51;99148.47;2081282;28;19933;-58
2023/03/17 02:23:18;;;;;;;;;;;;;;;19.74;58.66;99153.63;2081411;28;19933;-53
2023/03/17 02:24:25;;;;;;;;;;;;;;;19.75;58.54;99154.47;2081975;28;19926;-58
2023/03/17 02:25:27;;;;;;;;;;;;;;;19.77;58.22;99152.41;2080326;28;19940;-54
2023/03/17 02:26:30;;;;;;;;;;;;;;;19.77;58.62;99149.72;2081696;28;19933;-54
2023/03/17 02:27:33;;;;;;;;;;;;;;;19.78;58.21;99157.63;2082221;28;20532;-58
2023/03/17 02:28:34;;;;;;;;;;;;;;;19.79;58.34;99151.19;2081452;28;19970;-58
2023/03/17 02:29:36;;;;;;;;;;;;;;;19.79;58.26;99150.38;2074839;28;20532;-59
2023/03/17 02:30:37;;;;;;;;;;;;;;;19.79;58.42;99151.19;2081086;28;19933;-59
2023/03/17 02:31:38;;;;;;;;;;;;;;;19.81;58.21;99151.81;2082232;28;19933;-56
2023/03/17 02:32:39;;;;;;;;;;;;;;;19.80;58.52;99147.44;2082541;28;19983;-59
2023/03/17 02:33:41;;;;;;;;;;;;;;;19.81;58.20;99154.53;2082618;28;19983;-56
2023/03/17 02:34:42;;;;;;;;;;;;;;;19.82;58.38;99153.47;2083558;28;19943;-54
2023/03/17 02:35:43;;;;;;;;;;;;;;;19.80;58.32;99150.16;2083028;28;20050;-57
2023/03/17 02:36:45;;;;;;;;;;;;;;;19.82;58.33;99158.88;2083417;28;19959;-54
2023/03/17 02:37:46;;;;;;;;;;;;;;;19.81;58.45;99161.78;2083439;28;20283;-58
2023/03/17 02:38:48;;;;;;;;;;;;;;;19.82;58.59;99164.25;2082360;28;19994;-59
2023/03/17 02:39:49;;;;;;;;;;;;;;;19.80;58.58;99152.84;2084646;28;20408;-55
2023/03/17 02:40:50;;;;;;;;;;;;;;;19.80;58.16;99155.53;2074666;28;20624;-58
2023/03/17 02:41:51;;;;;;;;;;;;;;;19.81;58.58;99156.38;2080673;28;19932;-57
2023/03/17 02:42:53;;;;;;;;;;;;;;;19.81;58.31;99157.22;2083721;28;20296;-56
2023/03/17 02:43:54;;;;;;;;;;;;;;;19.81;58.41;99157.22;2082546;28;19933;-56
2023/03/17 02:44:55;;;;;;;;;;;;;;;19.81;58.37;99151.81;2083550;28;19925;-58
2023/03/17 02:45:56;;;;;;;;;;;;;;;19.80;58.34;99152.84;2084245;28;19931;-56
2023/03/17 02:46:58;;;;;;;;;;;;;;;19.81;58.27;99149.13;2081324;28;19928;-54
2023/03/17 02:47:59;;;;;;;;;;;;;;;19.81;58.60;99146.44;2077357;28;19959;-58
2023/03/17 02:49:00;;;;;;;;;;;;;;;19.81;58.32;99145.63;2082050;28;19929;-57
2023/03/17 02:50:01;;;;;;;;;;;;;;;19.81;58.15;99145.63;2084120;28;20016;-57
2023/03/17 02:51:03;;;;;;;;;;;;;;;19.80;58.33;99152.00;2083574;28;19932;-53
2023/03/17 02:52:03;;;;;;;;;;;;;;;19.81;58.16;99148.31;2083347;28;20303;-56
2023/03/17 02:53:07;;;;;;;;;;;;;;;19.81;58.16;99145.63;2082637;28;19957;-57
2023/03/17 02:54:07;;;;;;;;;;;;;;;19.79;58.46;99139.59;2082230;28;19959;-56
2023/03/17 02:55:09;;;;;;;;;;;;;;;19.79;58.31;99140.41;2083324;28;19958;-52
2023/03/17 02:56:09;;;;;;;;;;;;;;;19.80;58.31;99136.69;2083497;28;19929;-56
2023/03/17 02:57:11;;;;;;;;;;;;;;;19.80;58.44;99136.69;2084015;28;19951;-58
2023/03/17 02:58:11;;;;;;;;;;;;;;;19.80;58.16;99139.38;2083136;28;19924;-54
2023/03/17 02:59:13;;;;;;;;;;;;;;;19.80;58.40;99144.75;2083566;28;19929;-55
2023/03/17 03:00:14;;;;;;;;;;;;;;;19.81;58.20;99142.94;2082960;28;20374;-57
2023/03/17 03:01:17;;;;;;;;;;;;;;;19.81;58.55;99141.06;2077911;28;19931;-57
2023/03/17 03:02:17;;;;;;;;;;;;;;;19.81;58.22;99145.63;2078949;28;20421;-59
2023/03/17 03:03:18;;;;;;;;;;;;;;;19.80;58.50;99147.44;2080551;28;19935;-59
2023/03/17 03:04:19;;;;;;;;;;;;;;;19.80;58.17;99150.16;2084210;28;19940;-58
2023/03/17 03:05:20;;;;;;;;;;;;;;;19.79;58.42;99145.81;2077414;28;19933;-54
2023/03/17 03:06:22;;;;;;;;;;;;;;;19.80;58.34;99149.31;2080022;28;19929;-59
2023/03/17 03:07:24;;;;;;;;;;;;;;;19.79;58.06;99143.13;2083425;28;19939;-59
2023/03/17 03:08:26;;;;;;;;;;;;;;;19.80;58.11;99152.00;2084847;28;20043;-59
2023/03/17 03:09:28;;;;;;;;;;;;;;;19.79;58.34;99153.88;2082573;28;19928;-56
2023/03/17 03:10:29;;;;;;;;;;;;;;;19.79;58.16;99151.19;2081367;28;19998;-56
2023/03/17 03:11:31;;;;;;;;;;;;;;;19.78;58.31;99149.53;2083626;28;20374;-57
2023/03/17 03:12:31;;;;;;;;;;;;;;;19.78;58.41;99149.53;2082906;28;19935;-57
2023/03/17 03:13:33;;;;;;;;;;;;;;;19.79;58.10;99150.38;2082630;28;19975;-57
2023/03/17 03:14:34;;;;;;;;;;;;;;;19.78;58.41;99154.06;2083143;28;19987;-58
2023/03/17 03:15:36;;;;;;;;;;;;;;;19.79;58.36;99151.19;2083432;28;19987;-57
2023/03/17 03:16:37;;;;;;;;;;;;;;;19.77;57.97;99147.84;2082429;28;20891;-54
2023/03/17 03:17:38;;;;;;;;;;;;;;;19.78;58.27;99146.00;2083619;28;19928;-59
2023/03/17 03:18:39;;;;;;;;;;;;;;;19.77;58.19;99153.25;2083772;28;19986;-58
2023/03/17 03:19:40;;;;;;;;;;;;;;;19.75;58.42;99152.63;2084850;28;19973;-56
2023/03/17 03:20:41;;;;;;;;;;;;;;;19.75;58.13;99155.31;2082769;28;20012;-55
2023/03/17 03:21:43;;;;;;;;;;;;;;;19.75;58.30;99147.25;2084069;28;20016;-56
2023/03/17 03:22:43;;;;;;;;;;;;;;;19.75;58.39;99149.94;2083332;28;19929;-56
2023/03/17 03:23:46;;;;;;;;;;;;;;;19.75;57.87;99146.38;2074902;28;20768;-57
2023/03/17 03:24:47;;;;;;;;;;;;;;;19.73;58.00;99143.91;2083556;28;19979;-55
2023/03/17 03:25:48;;;;;;;;;;;;;;;19.74;58.25;99142.03;2083422;28;20406;-58
2023/03/17 03:26:48;;;;;;;;;;;;;;;19.74;58.34;99145.56;2082810;28;19925;-57
2023/03/17 03:27:50;;;;;;;;;;;;;;;19.74;58.02;99142.03;2083307;28;19988;-56
2023/03/17 03:28:50;;;;;;;;;;;;;;;19.74;58.02;99142.03;2083047;28;19929;-58
2023/03/17 03:29:52;;;;;;;;;;;;;;;19.73;58.14;99141.22;2083085;28;19975;-58
2023/03/17 03:30:52;;;;;;;;;;;;;;;19.72;58.09;99146.78;2083426;28;20018;-58
2023/03/17 03:31:54;;;;;;;;;;;;;;;19.72;58.26;99139.53;2082527;28;21164;-59
2023/03/17 03:32:55;;;;;;;;;;;;;;;19.71;58.36;99137.06;2082414;28;20015;-58
2023/03/17 03:33:56;;;;;;;;;;;;;;;19.69;58.23;99139.94;2082483;28;19932;-58
2023/03/17 03:34:56;;;;;;;;;;;;;;;19.70;58.21;99144.31;2085341;28;20545;-59
2023/03/17 03:35:58;;;;;;;;;;;;;;;19.68;58.20;99138.28;2086334;28;19929;-58
2023/03/17 03:36:58;;;;;;;;;;;;;;;19.68;58.30;99140.97;2083297;28;20345;-58
2023/03/17 03:38:00;;;;;;;;;;;;;;;19.70;57.98;99135.41;2083028;28;19974;-59
2023/03/17 03:39:02;;;;;;;;;;;;;;;19.68;58.20;99132.09;2083270;28;19971;-58
2023/03/17 03:40:06;;;;;;;;;;;;;;;19.67;58.18;99135.78;2081893;28;19932;-58
2023/03/17 03:41:07;;;;;;;;;;;;;;;19.67;58.09;99136.63;2082958;28;19933;-59
2023/03/17 03:42:08;;;;;;;;;;;;;;;19.68;58.17;99138.28;2068116;28;19996;-57
2023/03/17 03:43:09;;;;;;;;;;;;;;;19.66;58.23;99140.34;2081031;28;20506;-58
2023/03/17 03:44:11;;;;;;;;;;;;;;;19.66;58.18;99134.97;2073644;28;19933;-58
2023/03/17 03:45:11;;;;;;;;;;;;;;;19.67;58.26;99143.84;2077579;28;19929;-59
2023/03/17 03:46:14;;;;;;;;;;;;;;;19.66;58.06;99142.22;2081394;28;19933;-59
2023/03/17 03:47:14;;;;;;;;;;;;;;;19.65;58.29;99146.72;2079503;28;20016;-58
2023/03/17 03:48:16;;;;;;;;;;;;;;;19.62;58.25;99142.56;2080268;28;20377;-58
2023/03/17 03:49:16;;;;;;;;;;;;;;;19.64;58.05;99142.38;2083571;28;20512;-59
2023/03/17 03:50:18;;;;;;;;;;;;;;;19.63;57.98;99135.31;2081868;28;19929;-58
2023/03/17 03:51:19;;;;;;;;;;;;;;;19.62;58.16;99139.88;2083166;28;19975;-59
2023/03/17 03:52:20;;;;;;;;;;;;;;;19.62;58.28;99139.06;2081442;28;19998;-58
2023/03/17 03:53:21;;;;;;;;;;;;;;;19.61;58.36;99132.84;2077863;28;19936;-58
2023/03/17 03:54:24;;;;;;;;;;;;;;;19.62;58.25;99137.19;2083016;28;20054;-57
2023/03/17 03:55:24;;;;;;;;;;;;;;;19.62;57.89;99141.75;2082994;28;19955;-59
2023/03/17 03:56:26;;;;;;;;;;;;;;;19.60;57.78;99133.03;2083929;28;19990;-58
2023/03/17 03:57:27;;;;;;;;;;;;;;;19.60;58.11;99141.09;2083168;28;19928;-57
2023/03/17 03:58:28;;;;;;;;;;;;;;;19.59;58.26;99136.75;2081017;28;19967;-57
2023/03/17 03:59:29;;;;;;;;;;;;;;;19.57;58.33;99136.94;2075761;28;19925;-59
2023/03/17 04:00:30;;;;;;;;;;;;;;;19.56;58.04;99140.69;2082534;28;19929;-59
2023/03/17 04:01:31;;;;;;;;;;;;;;;19.57;58.19;99142.31;2084257;28;19936;-58
2023/03/17 04:02:32;;;;;;;;;;;;;;;19.57;58.16;99149.56;2083336;28;20833;-58
2023/03/17 04:03:33;;;;;;;;;;;;;;;19.54;58.05;99150.78;2083094;28;19983;-58
2023/03/17 04:04:35;;;;;;;;;;;;;;;19.54;58.21;99152.66;2083403;28;19952;-58
2023/03/17 04:05:35;;;;;;;;;;;;;;;19.53;57.83;99149.16;2082989;28;20016;-57
2023/03/17 04:06:36;;;;;;;;;;;;;;;19.53;57.89;99145.59;2082046;28;20009;-59
2023/03/17 04:07:37;;;;;;;;;;;;;;;19.52;58.04;99146.63;2083377;28;20317;-58
2023/03/17 04:08:39;;;;;;;;;;;;;;;19.51;58.10;99142.31;2083801;28;19990;-58
2023/03/17 04:09:41;;;;;;;;;;;;;;;19.50;58.18;99146.00;2084446;28;19937;-58
2023/03/17 04:10:42;;;;;;;;;;;;;;;19.50;58.09;99136.09;2077911;28;19929;-58
2023/03/17 04:11:43;;;;;;;;;;;;;;;19.50;57.95;99146.00;2081165;28;19983;-58
2023/03/17 04:12:45;;;;;;;;;;;;;;;19.47;58.33;99141.84;2082808;28;20474;-58
2023/03/17 04:13:45;;;;;;;;;;;;;;;19.48;58.22;99143.53;2081954;28;19936;-59
2023/03/17 04:14:47;;;;;;;;;;;;;;;19.47;58.05;99141.00;2082362;28;19939;-58
2023/03/17 04:15:47;;;;;;;;;;;;;;;19.48;58.06;99148.06;2075594;28;21185;-58
2023/03/17 04:16:49;;;;;;;;;;;;;;;19.48;58.24;99145.38;2080236;28;20003;-59
2023/03/17 04:17:49;;;;;;;;;;;;;;;19.46;57.92;99144.75;2082564;28;19983;-58
2023/03/17 04:18:51;;;;;;;;;;;;;;;19.42;58.22;99139.75;2081419;28;19929;-58
2023/03/17 04:19:51;;;;;;;;;;;;;;;19.42;58.20;99144.31;2076322;28;19925;-57
2023/03/17 04:20:53;;;;;;;;;;;;;;;19.39;58.30;99137.47;2080442;28;19928;-58
2023/03/17 04:21:53;;;;;;;;;;;;;;;19.40;58.02;99144.50;2083913;28;19994;-58
2023/03/17 04:22:55;;;;;;;;;;;;;;;19.42;58.30;99144.31;2084403;28;19925;-59
2023/03/17 04:23:55;;;;;;;;;;;;;;;19.41;57.94;99148.00;2082125;28;19933;-58
2023/03/17 04:24:58;;;;;;;;;;;;;;;19.39;58.24;99145.53;2081461;28;19951;-58
2023/03/17 04:25:58;;;;;;;;;;;;;;;19.39;58.19;99145.53;2082491;28;20815;-58
2023/03/17 04:27:00;;;;;;;;;;;;;;;19.39;57.75;99148.22;2082206;28;19975;-58
2023/03/17 04:28:01;;;;;;;;;;;;;;;19.39;57.94;99142.03;2081869;28;20337;-58
2023/03/17 04:29:02;;;;;;;;;;;;;;;19.36;58.24;99139.69;2082919;28;20406;-59
2023/03/17 04:30:04;;;;;;;;;;;;;;;19.35;58.15;99146.94;2082263;28;19925;-58
2023/03/17 04:31:04;;;;;;;;;;;;;;;19.35;58.26;99146.13;2081934;28;19933;-58
2023/03/17 04:32:07;;;;;;;;;;;;;;;19.35;57.90;99149.63;2076839;28;19933;-59
2023/03/17 04:33:07;;;;;;;;;;;;;;;19.34;58.08;99153.34;2082963;28;19948;-57
2023/03/17 04:34:12;;;;;;;;;;;;;;;19.34;57.87;99144.47;2081506;28;19928;-59
2023/03/17 04:35:13;;;;;;;;;;;;;;;19.33;58.19;99146.28;2082264;28;20371;-58
2023/03/17 04:36:17;;;;;;;;;;;;;;;19.33;58.03;99153.53;2084072;28;19968;-58
2023/03/17 04:37:18;;;;;;;;;;;;;;;19.32;58.19;99150.03;2083222;28;19929;-59
2023/03/17 04:38:19;;;;;;;;;;;;;;;19.32;57.83;99144.63;2082189;28;19971;-57
2023/03/17 04:39:21;;;;;;;;;;;;;;;19.31;57.97;99153.75;2082438;28;20006;-58
2023/03/17 04:40:23;;;;;;;;;;;;;;;19.33;57.79;99143.59;2081744;28;19925;-59
2023/03/17 04:41:24;;;;;;;;;;;;;;;19.33;58.12;99146.28;2082938;28;19929;-57
2023/03/17 04:42:25;;;;;;;;;;;;;;;19.33;58.16;99146.28;2082414;28;19986;-58
2023/03/17 04:43:26;;;;;;;;;;;;;;;19.34;58.13;99145.28;2082369;28;19979;-59
2023/03/17 04:44:27;;;;;;;;;;;;;;;19.34;58.15;99150.66;2082004;28;19929;-58
2023/03/17 04:45:28;;;;;;;;;;;;;;;19.36;57.89;99153.16;2082825;28;19940;-58
2023/03/17 04:46:29;;;;;;;;;;;;;;;19.36;57.89;99153.16;2081502;28;19933;-59
2023/03/17 04:47:31;;;;;;;;;;;;;;;19.36;57.99;99151.31;2081922;28;19928;-59
2023/03/17 04:48:31;;;;;;;;;;;;;;;19.37;58.21;99152.13;2082792;28;20299;-58
2023/03/17 04:49:32;;;;;;;;;;;;;;;19.38;57.83;99149.22;2082508;28;19929;-59
2023/03/17 04:50:33;;;;;;;;;;;;;;;19.40;58.05;99138.28;2073304;28;19933;-57
2023/03/17 04:51:35;;;;;;;;;;;;;;;19.39;57.97;99147.41;2082354;28;19980;-58
2023/03/17 04:52:36;;;;;;;;;;;;;;;19.38;58.23;99141.16;2081768;28;20342;-57
2023/03/17 04:53:37;;;;;;;;;;;;;;;19.39;57.89;99148.22;2076674;28;20012;-59
2023/03/17 04:54:38;;;;;;;;;;;;;;;19.40;58.15;99144.50;2073164;28;19932;-59
2023/03/17 04:55:41;;;;;;;;;;;;;;;19.42;57.82;99149.69;2076142;28;20354;-59
2023/03/17 04:57:00;;;;;;;;;;;;;;;19.40;57.98;99144.50;2082506;28;19929;-57
2023/03/17 04:58:01;;;;;;;;;;;;;;;19.39;58.11;99140.16;2079222;28;20406;-59
2023/03/17 04:59:02;;;;;;;;;;;;;;;19.40;58.05;99140.97;2075089;28;19979;-58
2023/03/17 05:00:04;;;;;;;;;;;;;;;19.41;58.10;99137.25;2082966;28;19933;-59
2023/03/17 05:01:06;;;;;;;;;;;;;;;19.41;57.88;99138.06;2082339;28;19924;-58
2023/03/17 05:02:08;;;;;;;;;;;;;;;19.41;58.06;99140.78;2082973;28;20219;-59
2023/03/17 05:03:08;;;;;;;;;;;;;;;19.40;57.99;99141.81;2083611;28;20000;-57
2023/03/17 05:04:10;;;;;;;;;;;;;;;19.41;58.10;99140.78;2082714;28;20054;-58
2023/03/17 05:05:11;;;;;;;;;;;;;;;19.43;58.12;99140.59;2081916;28;19936;-57
2023/03/17 05:06:13;;;;;;;;;;;;;;;19.42;58.10;99145.13;2076043;28;19929;-58
2023/03/17 05:07:14;;;;;;;;;;;;;;;19.41;57.96;99148.00;2080605;28;19932;-59
2023/03/17 05:08:15;;;;;;;;;;;;;;;19.41;58.09;99146.16;2081914;28;19964;-58
2023/03/17 05:09:16;;;;;;;;;;;;;;;19.42;58.13;99147.00;2082097;28;19991;-58
2023/03/17 05:10:17;;;;;;;;;;;;;;;19.42;57.83;99150.53;2081811;28;19933;-58
2023/03/17 05:11:19;;;;;;;;;;;;;;;19.42;57.76;99150.53;2084022;28;19936;-59
2023/03/17 05:12:21;;;;;;;;;;;;;;;19.45;57.96;99151.16;2083258;28;19932;-65
2023/03/17 05:13:22;;;;;;;;;;;;;;;19.45;57.73;99148.47;2081635;28;19928;-59
2023/03/17 05:14:23;;;;;;;;;;;;;;;19.42;57.85;99152.38;2081794;28;20625;-59
2023/03/17 05:15:24;;;;;;;;;;;;;;;19.41;57.70;99154.22;2081623;28;21261;-59
2023/03/17 05:16:25;;;;;;;;;;;;;;;19.42;57.80;99149.69;2082816;28;20021;-59
2023/03/17 05:17:26;;;;;;;;;;;;;;;19.42;57.99;99150.53;2081857;28;19924;-59
2023/03/17 05:18:27;;;;;;;;;;;;;;;19.45;57.90;99151.16;2082106;28;20010;-59
2023/03/17 05:19:28;;;;;;;;;;;;;;;19.45;57.66;99156.53;2082014;28;19928;-57
2023/03/17 05:20:30;;;;;;;;;;;;;;;19.43;58.01;99151.34;2081555;28;19929;-59
2023/03/17 05:21:31;;;;;;;;;;;;;;;19.42;58.02;99150.53;2079005;28;19925;-58
2023/03/17 05:22:32;;;;;;;;;;;;;;;19.42;57.85;99150.53;2083535;28;19995;-58